Time;durP1;ratioP1;P1;durP2;ratioP2;P2;SDS_P1;SDS_P2;PMS_P1;PMS_P2;Temp;Humidity;BMP_temperature;BMP_pressure;BME280_temperature;BME280_humidity;BME280_pressure;Samples;Min_cycle;Max_cycle;Signal;HPM_P1;HPM_P2
2023/04/02 00:00:32;;;;;;;5.57;3.08;;;;;;;8.86;86.79;99084.72;5062710;28;20024;-78
2023/04/02 00:03:00;;;;;;;5.50;3.17;;;;;;;8.74;85.91;99083.09;5062966;28;20573;-78
2023/04/02 00:05:33;;;;;;;6.03;3.33;;;;;;;8.63;86.84;99092.28;5062205;28;20088;-78
2023/04/02 00:08:18;;;;;;;8.10;4.35;;;;;;;8.93;87.06;99096.16;5062847;28;20031;-78
2023/04/02 00:10:52;;;;;;;4.40;2.63;;;;;;;9.22;85.23;99103.78;5062595;28;20519;-79
2023/04/02 00:13:21;;;;;;;;;;;;;;;8.93;85.10;99101.59;5063773;28;20040;-78
2023/04/02 00:15:50;;;;;;;5.65;3.15;;;;;;;9.01;85.79;99104.88;5062484;28;19916;-78
2023/04/02 00:18:18;;;;;;;9.52;3.40;;;;;;;8.91;85.76;99120.06;5044743;28;21409;-78
2023/04/02 00:20:49;;;;;;;6.80;3.22;;;;;;;8.46;86.08;99125.09;5063088;28;20638;-78
2023/04/02 00:23:15;;;;;;;5.03;2.67;;;;;;;8.49;86.50;99130.81;5062393;28;20080;-78
2023/04/02 00:25:44;;;;;;;5.88;2.53;;;;;;;8.62;85.85;99136.88;5062134;28;20119;-78
2023/04/02 00:28:15;;;;;;;5.93;2.92;;;;;;;8.48;85.97;99140.03;5062672;28;20028;-78
2023/04/02 00:30:53;;;;;;;4.55;2.30;;;;;;;8.72;85.54;99145.06;5062601;28;20138;-79
2023/04/02 00:33:22;;;;;;;5.10;2.60;;;;;;;8.68;84.87;99143.97;5062363;28;20565;-77
2023/04/02 00:35:49;;;;;;;6.57;3.50;;;;;;;8.93;84.88;99149.72;5062079;28;20694;-78
2023/04/02 00:38:25;;;;;;;7.85;3.58;;;;;;;8.94;83.84;99163.03;5062956;28;20067;-78
2023/04/02 00:40:53;;;;;;;7.97;4.05;;;;;;;8.95;84.57;99170.09;5062547;28;20477;-78
2023/04/02 00:43:19;;;;;;;8.27;4.30;;;;;;;8.77;84.80;99168.69;5062487;28;20489;-79
2023/04/02 00:45:49;;;;;;;7.80;4.57;;;;;;;8.90;84.90;99174.72;5061706;28;20695;-78
2023/04/02 00:48:38;;;;;;;7.03;3.95;;;;;;;9.06;84.12;99186.44;5062086;28;20708;-78
2023/04/02 00:51:31;;;;;;;6.60;3.40;;;;;;;8.94;83.55;99184.78;5062238;28;20161;-79
2023/04/02 00:54:01;;;;;;;9.48;4.10;;;;;;;8.80;83.14;99178.22;5062013;28;20029;-77
2023/04/02 00:56:32;;;;;;;6.75;3.42;;;;;;;8.28;84.66;99190.47;5062491;28;20650;-79
2023/04/02 00:58:57;;;;;;;6.20;3.65;;;;;;;7.96;86.01;99204.94;5061977;28;21182;-78
2023/04/02 01:01:33;;;;;;;9.38;5.03;;;;;;;8.12;86.12;99203.16;5063471;28;20056;-79
2023/04/02 01:04:00;;;;;;;6.75;3.25;;;;;;;8.18;85.14;99217.56;5061339;28;20545;-79
2023/04/02 01:06:37;;;;;;;6.78;3.60;;;;;;;8.21;84.65;99210.81;5043838;28;20924;-78
2023/04/02 01:09:11;;;;;;;7.78;3.75;;;;;;;8.16;85.91;99219.72;5061571;28;20063;-78
2023/04/02 01:12:04;;;;;;;8.27;4.00;;;;;;;8.20;85.10;99226.28;5061316;28;20039;-77
2023/04/02 01:14:44;;;;;;;8.10;4.07;;;;;;;8.44;84.52;99233.22;5043317;28;20101;-79
2023/04/02 01:17:41;;;;;;;7.35;4.00;;;;;;;7.95;84.91;99235.91;5043350;28;20032;-78
2023/04/02 01:20:21;;;;;;;7.45;4.03;;;;;;;8.11;85.10;99241.44;5061429;28;20050;-78
2023/04/02 01:23:04;;;;;;;7.18;4.30;;;;;;;8.17;84.62;99241.22;5043823;28;20738;-78
2023/04/02 01:25:42;;;;;;;8.32;4.18;;;;;;;8.34;83.24;99253.00;5061713;28;20063;-78
2023/04/02 01:28:20;;;;;;;5.35;2.47;;;;;;;8.42;83.93;99257.91;5061745;28;20036;-78
2023/04/02 01:30:51;;;;;;;7.72;4.00;;;;;;;8.04;84.85;99264.19;5061251;28;20032;-78
2023/04/02 01:33:20;;;;;;;7.40;3.30;;;;;;;8.20;83.75;99263.50;5061024;28;20035;-78
2023/04/02 01:35:50;;;;;;;6.65;3.85;;;;;;;8.28;84.03;99266.53;5042718;28;20871;-78
2023/04/02 01:38:24;;;;;;;6.97;4.68;;;;;;;8.36;83.34;99278.00;5061538;28;20036;-78
2023/04/02 01:41:02;;;;;;;6.97;4.03;;;;;;;8.39;83.26;99277.47;5061385;28;20032;-78
2023/04/02 01:43:36;;;;;;;6.13;3.45;;;;;;;8.56;82.77;99279.19;5061660;28;20062;-78
2023/04/02 01:46:24;;;;;;;5.20;3.25;;;;;;;8.62;82.01;99291.75;5060124;28;20028;-78
2023/04/02 01:48:50;;;;;;;7.18;3.70;;;;;;;8.35;82.11;99287.22;5061237;28;20043;-77
2023/04/02 01:51:40;;;;;;;7.57;3.15;;;;;;;8.50;82.30;99300.88;5060955;28;20056;-78
2023/04/02 01:54:06;;;;;;;5.03;3.03;;;;;;;8.46;82.04;99304.41;5060374;28;20064;-78
2023/04/02 01:56:34;;;;;;;6.68;3.70;;;;;;;8.31;81.78;99303.22;5061381;28;20135;-78
2023/04/02 01:59:01;;;;;;;5.20;3.00;;;;;;;8.55;81.61;99316.41;5060694;28;20695;-78
2023/04/02 02:01:34;;;;;;;8.90;3.92;;;;;;;8.55;80.84;99323.75;5061188;28;20028;-78
2023/04/02 02:04:00;;;;;;;5.57;2.65;;;;;;;8.28;81.94;99326.28;5060293;28;20040;-78
2023/04/02 02:06:26;;;;;;;6.20;3.17;;;;;;;8.17;81.87;99327.28;5060941;28;20432;-78
2023/04/02 02:08:55;;;;;;;5.47;3.00;;;;;;;7.65;83.45;99335.78;5060984;28;20028;-79
2023/04/02 02:11:24;;;;;;;5.22;2.47;;;;;;;7.26;85.13;99347.56;5060572;28;20044;-78
2023/04/02 02:13:59;;;;;;;5.28;2.40;;;;;;;7.52;84.90;99349.75;5060423;28;20035;-78
2023/04/02 02:16:26;;;;;;;6.47;3.42;;;;;;;7.67;83.70;99341.75;5060739;28;20119;-78
2023/04/02 02:18:54;;;;;;;4.43;2.72;;;;;;;8.03;83.69;99341.28;5060898;28;20035;-78
2023/04/02 02:21:30;;;;;;;5.85;2.83;;;;;;;8.20;81.85;99351.19;5060645;28;20081;-78
2023/04/02 02:23:56;;;;;;;5.85;2.40;;;;;;;8.27;81.67;99351.00;5059865;28;21246;-77
2023/04/02 02:26:24;;;;;;;6.53;3.03;;;;;;;8.19;81.59;99360.44;5061016;28;20147;-78
2023/04/02 02:28:54;;;;;;;5.90;2.42;;;;;;;7.94;81.36;99359.13;5060767;28;20036;-78
2023/04/02 02:31:26;;;;;;;4.93;2.40;;;;;;;8.20;81.81;99364.78;5061673;28;20033;-78
2023/04/02 02:33:57;;;;;;;4.72;2.70;;;;;;;8.02;81.84;99363.25;5059974;28;21301;-78
2023/04/02 02:36:47;;;;;;;3.88;1.98;;;;;;;7.70;81.97;99371.13;5061154;28;20038;-78
2023/04/02 02:39:31;;;;;;;5.07;3.15;;;;;;;7.61;83.49;99377.25;5060923;28;20031;-78
2023/04/02 02:42:07;;;;;;;9.10;3.40;;;;;;;7.74;82.35;99387.72;5060722;28;20045;-78
2023/04/02 02:44:35;;;;;;;6.03;3.10;;;;;;;7.55;82.51;99400.78;5061201;28;20047;-76
2023/04/02 02:47:08;;;;;;;5.30;3.25;;;;;;;7.72;81.92;99400.72;5060530;28;20550;-76
2023/04/02 02:49:41;;;;;;;6.28;3.05;;;;;;;7.74;81.61;99404.00;5061214;28;20173;-76
2023/04/02 02:52:09;;;;;;;5.57;2.60;;;;;;;7.47;81.26;99407.47;5060353;28;20029;-76
2023/04/02 02:54:39;;;;;;;6.35;2.85;;;;;;;7.51;82.80;99411.31;5060504;28;20036;-76
2023/04/02 02:57:09;;;;;;;5.10;2.67;;;;;;;7.83;80.55;99416.03;5060181;28;20662;-76
2023/04/02 02:59:35;;;;;;;5.93;2.90;;;;;;;7.82;80.54;99417.09;5060871;28;20028;-76
2023/04/02 03:02:02;;;;;;;6.40;3.45;;;;;;;7.80;80.18;99429.28;5060468;28;21259;-76
2023/04/02 03:04:34;;;;;;;5.72;3.13;;;;;;;7.73;81.02;99434.09;5060124;28;20037;-75
2023/04/02 03:07:02;;;;;;;8.73;4.85;;;;;;;7.80;80.57;99440.97;5060527;28;20099;-76
2023/04/02 03:09:54;;;;;;;5.28;3.40;;;;;;;7.31;81.46;99439.00;5060160;28;20183;-76
2023/04/02 03:12:27;;;;;;;5.80;2.85;;;;;;;7.51;81.65;99446.59;5060385;28;20041;-76
2023/04/02 03:15:02;;;;;;;5.90;3.20;;;;;;;7.05;81.76;99453.03;5060295;28;20032;-75
2023/04/02 03:18:02;;;;;;;6.55;3.15;;;;;;;7.63;81.55;99464.66;5059695;28;20024;-76
2023/04/02 03:20:47;;;;;;;9.50;3.47;;;;;;;7.32;81.10;99467.78;5005285;28;20033;-75
2023/04/02 03:23:39;;;;;;;7.88;4.07;;;;;;;7.33;81.08;99464.81;5060193;28;20086;-75
2023/04/02 03:26:24;;;;;;;5.57;2.83;;;;;;;7.41;81.88;99468.16;5041369;28;20506;-76
2023/04/02 03:28:56;;;;;;;5.78;2.50;;;;;;;7.03;81.66;99474.16;5060299;28;20034;-75
2023/04/02 03:31:26;;;;;;;6.10;2.67;;;;;;;7.09;82.00;99481.28;5060345;28;20029;-76
2023/04/02 03:34:03;;;;;;;6.10;3.45;;;;;;;7.28;81.25;99486.41;5059736;28;20029;-76
2023/04/02 03:36:37;;;;;;;5.82;3.63;;;;;;;7.09;82.46;99499.44;5064021;28;20777;-75
2023/04/02 03:39:20;;;;;;;6.20;2.97;;;;;;;7.12;81.20;99497.06;5063607;28;20946;-75
2023/04/02 03:41:57;;;;;;;7.00;4.85;;;;;;;6.98;82.47;99506.59;5063925;28;20075;-75
2023/04/02 03:44:37;;;;;;;5.75;2.80;;;;;;;6.92;82.12;99508.41;5063159;28;20036;-75
2023/04/02 03:47:13;;;;;;;5.50;2.80;;;;;;;7.04;82.28;99516.44;5062980;28;20834;-75
2023/04/02 03:49:46;;;;;;;7.50;3.67;;;;;;;7.02;81.49;99524.00;5063503;28;20690;-75
2023/04/02 03:52:18;;;;;;;8.00;3.30;;;;;;;7.46;80.98;99519.78;5063167;28;20029;-76
2023/04/02 03:54:44;;;;;;;6.20;2.95;;;;;;;6.69;81.09;99533.78;5063264;28;20060;-75
2023/04/02 03:57:35;;;;;;;5.30;2.65;;;;;;;6.81;82.04;99539.94;5062421;28;20273;-75
2023/04/02 04:00:15;;;;;;;7.55;3.53;;;;;;;7.00;81.24;99537.81;5063255;28;20067;-75
2023/04/02 04:02:48;;;;;;;8.07;3.65;;;;;;;7.19;81.94;99542.97;5062996;28;20032;-76
2023/04/02 04:05:36;;;;;;;7.17;3.47;;;;;;;7.11;81.69;99540.69;5062917;28;20032;-75
2023/04/02 04:08:05;;;;;;;9.38;4.30;;;;;;;7.19;81.17;99550.28;5063143;28;20260;-76
2023/04/02 04:10:31;;;;;;;6.43;3.42;;;;;;;7.12;80.94;99556.69;5062762;28;21131;-75
2023/04/02 04:13:05;;;;;;;6.43;3.25;;;;;;;6.63;81.64;99563.47;5063245;28;20056;-76
2023/04/02 04:15:33;;;;;;;10.30;4.45;;;;;;;6.71;84.13;99572.28;5062527;28;20037;-76
2023/04/02 04:18:09;;;;;;;9.73;5.22;;;;;;;6.98;81.52;99577.06;5062533;28;20037;-76
2023/04/02 04:21:14;;;;;;;7.90;4.03;;;;;;;6.93;81.58;99579.69;5045428;28;20037;-75
2023/04/02 04:23:49;;;;;;;10.20;4.63;;;;;;;7.25;81.09;99587.28;5047911;28;20430;-76
2023/04/02 04:26:52;;;;;;;9.93;5.07;;;;;;;7.71;79.23;99589.00;5062974;28;20067;-75
2023/04/02 04:29:17;;;;;;;7.43;4.57;;;;;;;6.97;79.70;99588.97;5031670;28;20036;-76
2023/04/02 04:31:49;;;;;;;9.73;5.17;;;;;;;6.95;80.35;99591.94;5062461;28;20118;-76
2023/04/02 04:34:45;;;;;;;9.45;5.68;;;;;;;6.82;81.86;99616.63;5061749;28;20033;-75
2023/04/02 04:37:24;;;;;;;7.95;4.70;;;;;;;6.95;81.40;99615.50;5056687;28;20044;-75
2023/04/02 04:40:06;;;;;;;9.45;5.40;;;;;;;7.33;79.73;99621.28;5063043;28;20037;-76
2023/04/02 04:42:34;;;;;;;10.07;5.07;;;;;;;6.88;81.10;99638.16;5062369;28;20029;-76
2023/04/02 04:45:08;;;;;;;9.40;5.30;;;;;;;7.16;79.39;99638.38;5061824;28;20047;-75
2023/04/02 04:47:55;;;;;;;11.93;6.15;;;;;;;7.19;79.13;99637.06;5062159;28;20036;-76
2023/04/02 04:50:33;;;;;;;9.32;5.45;;;;;;;7.33;79.02;99646.53;5062292;28;20071;-76
2023/04/02 04:53:14;;;;;;;12.30;6.95;;;;;;;7.08;79.91;99658.56;5062303;28;20032;-75
2023/04/02 04:55:43;;;;;;;11.43;6.78;;;;;;;7.25;79.58;99668.63;5061503;28;20669;-76
2023/04/02 04:58:21;;;;;;;10.38;5.97;;;;;;;7.09;79.06;99659.41;5061579;28;20035;-76
2023/04/02 05:00:56;;;;;;;11.27;5.95;;;;;;;6.65;78.93;99668.91;5060442;28;20063;-76
2023/04/02 05:03:41;;;;;;;9.88;5.45;;;;;;;6.53;80.74;99682.47;5062009;28;20597;-76
2023/04/02 05:06:23;;;;;;;9.52;5.82;;;;;;;6.62;80.83;99689.16;5061522;28;20089;-76
2023/04/02 05:08:52;;;;;;;13.38;7.57;;;;;;;6.98;80.67;99685.50;5061819;28;20089;-76
2023/04/02 05:11:36;;;;;;;11.98;5.38;;;;;;;6.35;80.97;99700.53;5061857;28;20072;-76
2023/04/02 05:14:21;;;;;;;11.75;6.18;;;;;;;6.33;82.08;99702.66;5061358;28;20044;-76
2023/04/02 05:17:04;;;;;;;16.90;8.32;;;;;;;6.89;80.39;99712.19;5062364;28;20228;-76
2023/04/02 05:19:39;;;;;;;11.63;6.78;;;;;;;6.89;78.77;99707.56;5061261;28;20037;-76
2023/04/02 05:22:30;;;;;;;11.38;6.18;;;;;;;6.44;79.74;99732.66;5061255;28;20111;-76
2023/04/02 05:25:16;;;;;;;10.85;5.97;;;;;;;6.21;81.39;99743.28;5061395;28;20093;-76
2023/04/02 05:28:03;;;;;;;15.65;9.82;;;;;;;6.36;80.77;99745.53;5061876;28;20501;-76
2023/04/02 05:30:28;;;;;;;12.95;7.50;;;;;;;6.51;81.38;99739.59;5061892;28;20036;-76
2023/04/02 05:32:59;;;;;;;14.83;8.43;;;;;;;6.96;79.21;99758.09;5061504;28;20919;-75
2023/04/02 05:35:32;;;;;;;13.93;7.32;;;;;;;6.86;79.03;99764.13;5061023;28;20671;-75
2023/04/02 05:38:00;;;;;;;11.70;6.68;;;;;;;6.94;79.25;99757.50;5061446;28;20047;-75
2023/04/02 05:40:33;;;;;;;16.02;7.40;;;;;;;6.57;79.29;99767.63;5061360;28;20021;-75
2023/04/02 05:43:00;;;;;;;12.93;7.20;;;;;;;6.75;79.17;99768.53;5061233;28;20029;-76
2023/04/02 05:45:31;;;;;;;12.38;7.70;;;;;;;6.73;79.26;99776.88;5060758;28;20834;-76
2023/04/02 05:48:00;;;;;;;10.73;6.22;;;;;;;6.77;79.17;99769.13;5061268;28;20060;-76
2023/04/02 05:50:36;;;;;;;11.02;6.85;;;;;;;6.64;79.26;99776.44;5061291;28;20063;-75
2023/04/02 05:53:28;;;;;;;10.63;5.57;;;;;;;6.52;78.57;99783.75;5043549;28;20469;-75
2023/04/02 05:55:58;;;;;;;15.20;6.75;;;;;;;6.77;78.72;99793.53;5060674;28;20046;-75
2023/04/02 05:58:42;;;;;;;12.30;7.38;;;;;;;6.27;79.29;99806.50;5060912;28;20111;-75
2023/04/02 06:01:23;;;;;;;14.87;8.10;;;;;;;6.60;78.96;99794.25;5042708;28;20040;-75
2023/04/02 06:04:02;;;;;;;16.85;7.55;;;;;;;6.34;79.29;99818.06;5060523;28;20290;-75
2023/04/02 06:06:42;;;;;;;12.85;6.80;;;;;;;6.55;79.43;99813.06;5061101;28;20036;-75
2023/04/02 06:09:52;;;;;;;14.57;5.82;;;;;;;6.81;78.02;99821.78;5060237;28;20058;-75
2023/04/02 06:12:45;;;;;;;17.10;6.97;;;;;;;6.84;77.76;99829.44;5060932;28;20045;-75
2023/04/02 06:15:15;;;;;;;14.18;8.00;;;;;;;6.99;77.96;99828.13;5060335;28;20033;-75
2023/04/02 06:17:57;;;;;;;14.68;7.85;;;;;;;6.71;78.29;99843.25;5060936;28;20055;-75
2023/04/02 06:20:22;;;;;;;14.30;7.32;;;;;;;6.56;77.97;99851.84;5060894;28;20078;-76
2023/04/02 06:22:54;;;;;;;13.52;8.75;;;;;;;6.42;78.60;99842.06;5061265;28;20032;-75
2023/04/02 06:25:25;;;;;;;14.98;7.38;;;;;;;6.12;79.55;99861.91;5060343;28;20036;-75
2023/04/02 06:27:53;;;;;;;11.77;6.78;;;;;;;6.19;79.97;99876.19;5060955;28;20035;-75
2023/04/02 06:30:23;;;;;;;13.90;8.15;;;;;;;6.54;79.47;99871.88;5060723;28;20032;-75
2023/04/02 06:32:48;;;;;;;15.88;7.22;;;;;;;6.86;78.16;99867.97;5060812;28;20631;-75
2023/04/02 06:35:14;;;;;;;13.15;7.72;;;;;;;6.83;77.63;99882.00;5059112;28;20047;-76
2023/04/02 06:37:44;;;;;;;17.75;9.38;;;;;;;6.80;77.47;99887.88;5059504;28;20037;-75
2023/04/02 06:40:38;;;;;;;11.52;5.90;;;;;;;6.69;77.50;99894.13;5059510;28;20113;-76
2023/04/02 06:43:17;;;;;;;16.35;9.18;;;;;;;6.70;77.31;99896.59;5059592;28;20059;-77
2023/04/02 06:45:48;;;;;;;14.85;6.32;;;;;;;6.67;77.63;99899.81;5058878;28;22037;-75
2023/04/02 06:48:18;;;;;;;9.70;4.85;;;;;;;6.49;77.26;99920.50;5059182;28;20039;-75
2023/04/02 06:50:50;;;;;;;12.25;5.80;;;;;;;6.53;78.57;99912.72;5059653;28;20064;-75
2023/04/02 06:53:31;;;;;;;12.85;5.47;;;;;;;6.73;78.28;99919.69;5059547;28;20016;-76
2023/04/02 06:56:24;;;;;;;10.95;5.22;;;;;;;6.59;77.30;99922.63;5059201;28;20036;-77
2023/04/02 06:58:50;;;;;;;23.10;7.93;;;;;;;6.58;78.49;99931.00;5059830;28;20124;-75
2023/04/02 07:01:23;;;;;;;9.40;6.10;;;;;;;6.99;77.19;99931.13;5059598;28;20034;-76
2023/04/02 07:03:48;;;;;;;11.03;6.57;;;;;;;6.71;77.31;99951.63;5058902;28;20040;-77
2023/04/02 07:06:19;;;;;;;10.23;5.47;;;;;;;6.82;77.12;99952.69;5041549;28;20470;-76
2023/04/02 07:08:45;;;;;;;9.85;5.72;;;;;;;6.68;77.50;99961.03;5059484;28;20056;-76
2023/04/02 07:11:20;;;;;;;9.35;5.47;;;;;;;6.75;77.44;99958.22;5063166;28;20952;-76
2023/04/02 07:13:46;;;;;;;12.93;5.72;;;;;;;6.53;77.00;99972.31;5062992;28;20028;-75
2023/04/02 07:16:20;;;;;;;7.40;4.25;;;;;;;6.37;77.02;99977.34;5063225;28;20028;-75
2023/04/02 07:18:45;;;;;;;11.93;5.95;;;;;;;6.24;77.85;99986.50;5063225;28;20059;-75
2023/04/02 07:21:11;;;;;;;13.02;6.43;;;;;;;6.04;77.96;99984.06;5063091;28;20413;-75
2023/04/02 07:23:36;;;;;;;9.82;5.95;;;;;;;6.34;77.52;99988.66;5063242;28;20553;-76
2023/04/02 07:26:04;;;;;;;11.40;6.72;;;;;;;6.60;76.53;99999.31;5062395;28;20047;-76
2023/04/02 07:28:29;;;;;;;9.48;6.10;;;;;;;6.46;76.92;100004.94;5063349;28;20028;-76
2023/04/02 07:30:55;;;;;;;11.20;5.80;;;;;;;6.65;76.37;100004.88;5062839;28;20051;-75
2023/04/02 07:33:23;;;;;;;9.70;5.78;;;;;;;6.73;76.13;100014.56;5062781;28;20815;-76
2023/04/02 07:35:50;;;;;;;11.98;6.75;;;;;;;6.71;76.07;100016.66;5061786;28;20028;-76
2023/04/02 07:38:15;;;;;;;10.63;5.88;;;;;;;6.86;76.13;100014.31;5062663;28;20034;-75
2023/04/02 07:40:41;;;;;;;14.02;6.00;;;;;;;6.91;75.81;100016.34;5062505;28;20032;-75
2023/04/02 07:43:07;;;;;;;13.30;6.35;;;;;;;6.92;74.89;100022.56;5062446;28;20025;-75
2023/04/02 07:45:32;;;;;;;12.10;6.30;;;;;;;6.80;74.95;100031.50;5061901;28;20036;-75
2023/04/02 07:48:05;;;;;;;10.55;6.88;;;;;;;6.64;75.25;100044.69;5062467;28;20058;-75
2023/04/02 07:50:30;;;;;;;13.43;6.03;;;;;;;6.44;74.21;100046.84;5062508;28;20037;-76
2023/04/02 07:52:55;;;;;;;9.40;5.73;;;;;;;6.79;74.71;100048.84;5062412;28;20040;-75
2023/04/02 07:55:21;;;;;;;11.38;6.25;;;;;;;6.55;74.93;100054.19;5061827;28;20768;-75
2023/04/02 07:57:54;;;;;;;9.00;4.47;;;;;;;6.54;75.68;100060.66;5044344;28;20033;-76
2023/04/02 08:00:21;;;;;;;9.48;4.93;;;;;;;6.48;74.75;100061.59;5062398;28;20411;-76
2023/04/02 08:02:47;;;;;;;9.25;4.72;;;;;;;6.61;74.91;100066.81;5061926;28;20450;-75
2023/04/02 08:05:13;;;;;;;5.93;3.58;;;;;;;6.74;74.61;100064.97;5061705;28;20044;-75
2023/04/02 08:07:38;;;;;;;9.85;5.05;;;;;;;7.04;73.85;100068.69;5061876;28;20060;-76
2023/04/02 08:10:05;;;;;;;18.77;4.75;;;;;;;6.76;73.99;100077.22;5060160;28;20528;-76
2023/04/02 08:12:30;;;;;;;9.40;4.10;;;;;;;6.64;73.59;100081.78;5062677;28;20039;-75
2023/04/02 08:14:55;;;;;;;9.38;4.93;;;;;;;6.01;74.62;100088.19;5062979;28;20032;-74
2023/04/02 08:17:21;;;;;;;6.47;3.20;;;;;;;6.34;75.15;100099.69;5045018;28;20032;-75
2023/04/02 08:19:46;;;;;;;7.70;3.38;;;;;;;6.12;73.85;100096.63;5061352;28;20032;-76
2023/04/02 08:22:11;;;;;;;7.33;3.33;;;;;;;6.41;74.49;100099.59;5063042;28;20060;-74
2023/04/02 08:24:37;;;;;;;7.82;3.75;;;;;;;6.21;74.42;100110.69;5063010;28;20261;-74
2023/04/02 08:27:03;;;;;;;6.83;3.13;;;;;;;6.35;74.38;100122.16;5062761;28;20052;-74
2023/04/02 08:29:31;;;;;;;8.35;3.95;;;;;;;6.67;71.88;100126.56;5063483;28;20292;-75
2023/04/02 08:31:57;;;;;;;6.22;3.65;;;;;;;6.45;71.81;100127.06;5062916;28;20667;-74
2023/04/02 08:34:23;;;;;;;5.20;3.17;;;;;;;6.62;72.27;100130.78;5062349;28;20028;-76
2023/04/02 08:36:48;;;;;;;8.85;4.00;;;;;;;6.25;73.11;100139.78;5063089;28;20029;-74
2023/04/02 08:39:13;;;;;;;6.90;2.90;;;;;;;6.68;72.10;100136.34;5044581;28;20024;-75
2023/04/02 08:42:25;;;;;;;4.78;2.58;;;;;;;6.50;71.32;100140.75;5060908;28;20265;-77
2023/04/02 08:45:11;;;;;;;4.82;3.35;;;;;;;6.13;71.79;100142.44;5043513;28;20546;-77
2023/04/02 08:47:39;;;;;;;7.72;3.67;;;;;;;6.59;72.26;100161.03;5062287;28;20028;-76
2023/04/02 08:50:41;;;;;;;6.65;2.78;;;;;;;6.57;71.56;100165.84;5062601;28;20028;-75
2023/04/02 08:53:17;;;;;;;7.55;3.28;;;;;;;6.60;71.89;100168.13;5057080;28;20397;-76
2023/04/02 08:56:04;;;;;;;10.40;3.70;;;;;;;6.71;71.71;100168.41;5062020;28;20040;-77
2023/04/02 08:58:40;;;;;;;7.50;2.85;;;;;;;6.92;70.49;100182.50;5062770;28;20027;-77
2023/04/02 09:01:10;;;;;;;5.60;2.92;;;;;;;7.05;70.74;100184.19;5061766;28;20044;-77
2023/04/02 09:03:41;;;;;;;7.38;2.83;;;;;;;7.43;69.54;100198.44;5061495;28;20564;-77
2023/04/02 09:06:11;;;;;;;7.38;2.65;;;;;;;7.00;68.37;100198.44;5061278;28;20098;-77
2023/04/02 09:08:38;;;;;;;7.55;3.35;;;;;;;6.67;71.02;100199.72;5061797;28;20036;-76
2023/04/02 09:11:32;;;;;;;7.78;3.00;;;;;;;7.09;69.63;100213.34;5061171;28;20032;-77
2023/04/02 09:14:02;;;;;;;7.28;2.17;;;;;;;7.20;69.12;100214.44;5060649;28;20029;-77
2023/04/02 09:16:44;;;;;;;6.53;2.55;;;;;;;7.03;68.58;100214.28;5061069;28;20327;-76
2023/04/02 09:19:15;;;;;;;5.85;3.22;;;;;;;6.89;69.92;100219.84;5060548;28;20505;-76
2023/04/02 09:21:45;;;;;;;7.72;2.97;;;;;;;6.82;69.72;100219.13;5061227;28;20078;-77
2023/04/02 09:24:14;;;;;;;7.57;3.35;;;;;;;6.49;70.75;100213.06;5060546;28;20028;-75
2023/04/02 09:26:39;;;;;;;6.05;2.60;;;;;;;6.55;70.61;100222.16;5061421;28;20048;-77
2023/04/02 09:29:10;;;;;;;8.35;3.42;;;;;;;6.75;70.61;100229.22;5060930;28;20029;-75
2023/04/02 09:31:43;;;;;;;8.45;3.17;;;;;;;6.58;70.58;100240.69;5060130;28;20036;-77
2023/04/02 09:34:35;;;;;;;6.35;2.40;;;;;;;6.71;71.09;100249.72;5059876;28;20155;-75
2023/04/02 09:37:24;;;;;;;6.88;2.80;;;;;;;6.61;71.05;100252.94;5060544;28;20520;-78
2023/04/02 09:39:49;;;;;;;4.95;2.42;;;;;;;6.89;70.23;100257.81;5060144;28;20048;-76
2023/04/02 09:42:36;;;;;;;6.07;3.05;;;;;;;6.98;69.97;100252.91;5060076;28;20540;-78
2023/04/02 09:45:20;;;;;;;6.18;2.53;;;;;;;7.07;68.58;100258.84;5060231;28;20051;-77
2023/04/02 09:47:46;;;;;;;8.23;2.45;;;;;;;7.12;69.65;100261.69;5042458;28;20128;-77
2023/04/02 09:50:38;;;;;;;6.10;2.65;;;;;;;7.39;68.64;100265.06;5060379;28;20036;-77
2023/04/02 09:53:27;;;;;;;6.78;3.25;;;;;;;7.45;68.52;100261.44;5056459;28;20107;-79
2023/04/02 09:56:11;;;;;;;9.00;2.67;;;;;;;7.42;70.22;100270.88;5059772;28;20040;-79
2023/04/02 09:58:37;;;;;;;7.32;2.85;;;;;;;7.34;69.13;100271.22;5060930;28;20428;-74
2023/04/02 10:01:03;;;;;;;8.75;3.40;;;;;;;7.58;68.23;100277.53;5060143;28;20036;-76
2023/04/02 10:03:31;;;;;;;7.82;2.92;;;;;;;7.70;67.25;100282.16;5060354;28;20064;-77
2023/04/02 10:06:14;;;;;;;4.25;2.05;;;;;;;7.20;66.65;100289.56;5059722;28;20798;-76
2023/04/02 10:08:42;;;;;;;4.43;1.90;;;;;;;7.55;66.92;100291.56;5060270;28;20028;-78
2023/04/02 10:11:18;;;;;;;11.88;3.00;;;;;;;7.85;66.99;100302.63;5059931;28;20051;-77
2023/04/02 10:13:55;;;;;;;4.35;2.75;;;;;;;8.05;65.65;100311.25;5060095;28;20056;-77
2023/04/02 10:16:31;;;;;;;5.03;1.98;;;;;;;7.94;66.28;100309.34;5060274;28;20142;-77
2023/04/02 10:19:12;;;;;;;6.60;3.67;;;;;;;7.91;66.83;100309.81;5059710;28;20761;-76
2023/04/02 10:21:40;;;;;;;6.00;2.85;;;;;;;7.66;66.31;100317.09;5060256;28;20498;-77
2023/04/02 10:24:13;;;;;;;6.65;2.58;;;;;;;7.61;67.88;100321.56;5059469;28;20382;-78
2023/04/02 10:27:00;;;;;;;11.23;4.13;;;;;;;7.44;67.39;100322.19;5060220;28;20029;-77
2023/04/02 10:29:48;;;;;;;4.28;2.50;;;;;;;7.46;67.93;100339.09;5060352;28;20083;-76
2023/04/02 10:32:19;;;;;;;6.45;2.30;;;;;;;7.90;67.18;100340.75;5059339;28;20136;-77
2023/04/02 10:35:12;;;;;;;4.45;1.83;;;;;;;7.63;65.00;100341.16;5059530;28;20549;-77
2023/04/02 10:37:56;;;;;;;5.25;1.88;;;;;;;7.92;66.40;100352.19;5060182;28;20035;-77
2023/04/02 10:40:59;;;;;;;6.13;2.10;;;;;;;8.00;65.64;100357.28;5042387;28;20607;-78
2023/04/02 10:43:30;;;;;;;6.32;2.80;;;;;;;7.99;66.01;100352.94;5060928;28;20036;-77
2023/04/02 10:46:14;;;;;;;5.53;2.70;;;;;;;7.94;65.76;100363.66;5063445;28;20037;-76
2023/04/02 10:48:46;;;;;;;5.88;2.30;;;;;;;7.73;66.38;100363.09;5064322;28;20033;-77
2023/04/02 10:51:33;;;;;;;3.03;1.83;;;;;;;8.09;64.67;100360.50;5063848;28;20021;-76
2023/04/02 10:54:12;;;;;;;5.70;2.72;;;;;;;8.21;65.06;100365.97;5063179;28;20036;-77
2023/04/02 10:56:37;;;;;;;6.10;2.47;;;;;;;8.35;63.86;100371.16;5064061;28;20485;-78
2023/04/02 10:59:28;;;;;;;3.25;1.42;;;;;;;8.15;64.74;100375.03;5064070;28;20072;-75
2023/04/02 11:01:56;;;;;;;5.07;2.17;;;;;;;8.08;63.51;100368.88;5052868;28;20044;-75
2023/04/02 11:04:33;;;;;;;4.85;2.17;;;;;;;8.17;64.28;100373.75;5064096;28;20044;-76
2023/04/02 11:07:04;;;;;;;6.30;2.47;;;;;;;8.09;64.35;100386.84;5064862;28;20689;-75
2023/04/02 11:09:36;;;;;;;10.07;2.22;;;;;;;7.97;64.83;100390.34;5064693;28;20049;-75
2023/04/02 11:12:04;;;;;;;5.18;2.60;;;;;;;8.19;64.83;100387.09;5064508;28;20051;-74
2023/04/02 11:14:31;;;;;;;3.25;1.83;;;;;;;8.14;64.83;100384.22;5064231;28;20436;-76
2023/04/02 11:16:59;;;;;;;8.43;2.50;;;;;;;8.19;63.27;100403.38;5064383;28;20033;-76
2023/04/02 11:19:32;;;;;;;6.07;2.28;;;;;;;7.76;65.54;100402.53;5064109;28;20032;-75
2023/04/02 11:22:02;;;;;;;4.55;1.58;;;;;;;8.36;64.96;100411.66;5064545;28;20323;-78
2023/04/02 11:24:35;;;;;;;10.98;2.78;;;;;;;8.73;63.49;100413.41;5064300;28;20043;-80
2023/04/02 11:27:06;;;;;;;3.70;2.15;;;;;;;8.84;63.15;100421.78;5064045;28;20043;-77
2023/04/02 11:29:33;;;;;;;6.22;1.75;;;;;;;8.92;62.24;100421.44;5064270;28;20036;-77
2023/04/02 11:32:28;;;;;;;9.07;3.50;;;;;;;9.10;60.49;100425.06;5063914;28;20021;-77
2023/04/02 11:34:54;;;;;;;14.50;4.05;;;;;;;9.17;60.91;100433.13;5063339;28;20471;-75
2023/04/02 11:37:39;;;;;;;9.77;2.93;;;;;;;9.30;61.45;100435.56;5063244;28;20047;-76
2023/04/02 11:40:12;;;;;;;8.27;2.75;;;;;;;8.98;61.21;100442.25;5063365;28;20300;-75
2023/04/02 11:42:40;;;;;;;12.43;4.15;;;;;;;9.04;60.25;100437.75;5063088;28;20074;-75
2023/04/02 11:45:27;;;;;;;5.50;2.00;;;;;;;9.17;60.16;100444.81;5062646;28;20033;-76
2023/04/02 11:47:58;;;;;;;5.05;1.67;;;;;;;9.01;60.92;100453.72;5062955;28;20028;-75
2023/04/02 11:50:29;;;;;;;7.38;1.77;;;;;;;9.18;60.36;100454.63;5062668;28;20043;-75
2023/04/02 11:53:00;;;;;;;5.38;1.95;;;;;;;8.95;61.07;100453.59;5063343;28;20040;-75
2023/04/02 11:55:29;;;;;;;5.40;2.90;;;;;;;8.70;61.17;100457.38;5060884;28;20036;-75
2023/04/02 11:58:31;;;;;;;4.78;2.00;;;;;;;8.33;61.66;100458.34;5063429;28;20036;-74
2023/04/02 12:01:18;;;;;;;3.15;1.65;;;;;;;8.80;62.02;100469.53;5044658;28;20123;-74
2023/04/02 12:04:12;;;;;;;4.05;1.95;;;;;;;8.58;59.94;100467.41;5062842;28;20035;-74
2023/04/02 12:06:50;;;;;;;5.68;2.35;;;;;;;8.57;61.03;100468.44;5063487;28;20025;-74
2023/04/02 12:09:22;;;;;;;4.60;1.88;;;;;;;8.17;62.66;100470.69;5062535;28;20132;-74
2023/04/02 12:11:50;;;;;;;4.03;2.08;;;;;;;8.42;62.71;100477.84;5063489;28;20413;-74